Tipton Airport Fort Meade(Odenton) US
ICAO: KFME
IATA: FME
Category: Medium
Scheduled Services: No

Elevation: 150 ft
TransAlt. 18000 ft.

Airport Communications:
POTOMAC APP DEP:119.7
AWOS 3:123.925
CTAF/UNICOM:123.05

KFME Zoom In..

Runways:

(A) RW 10 length 3000 ft width 75 ft
---- / hdg 104

(B) RW 28 length 3000 ft width 75 ft
---- / hdg 284

Location; KFME
Day. 22 / Time. 23.57 Zulu
* Altimeter: 30.05
* Temperature: 11° c. 51.8°f.
* Wind from: 130° Speed 04 kn.
Dewpoint: 05° c.
Visibility: 10 Statute Miles.
Clouds: Clear (automated report).

KFME 222357Z AUTO 13004KT 10SM CLR 11/05 A3005 RMK AO1


Wind From 130°
Speed 04 kn.

YouTube Music Video
 
jpsmedia.com for Web Design  worldairports.se 2018   terms of use